createdAt,value
2018-07-05T00:01:15.077Z,7.60
2018-07-05T00:03:54.815Z,8.88
2018-07-05T00:06:34.427Z,9.70
2018-07-05T00:09:14.301Z,9.40
2018-07-05T00:11:53.920Z,9.20
2018-07-05T00:14:33.916Z,10.20
2018-07-05T00:17:13.468Z,9.65
2018-07-05T00:19:53.207Z,9.97
2018-07-05T00:22:33.649Z,9.80
2018-07-05T00:25:13.364Z,10.90
2018-07-05T00:27:53.038Z,10.17
2018-07-05T00:30:32.638Z,10.47
2018-07-05T00:33:12.586Z,9.90
2018-07-05T00:35:52.247Z,11.07
2018-07-05T00:38:31.793Z,12.33
2018-07-05T00:41:11.499Z,14.13
2018-07-05T00:43:51.279Z,13.57
2018-07-05T00:46:30.839Z,9.33
2018-07-05T00:49:10.425Z,10.90
2018-07-05T00:51:51.218Z,10.60
2018-07-05T00:54:30.921Z,10.38
2018-07-05T00:57:10.728Z,10.20
2018-07-05T00:59:50.449Z,10.60
2018-07-05T01:02:30.130Z,10.77
2018-07-05T01:05:10.119Z,11.03
2018-07-05T01:07:49.887Z,11.65
2018-07-05T01:10:29.611Z,10.10
2018-07-05T01:13:09.328Z,11.93
2018-07-05T01:15:49.051Z,12.10
2018-07-05T01:18:28.864Z,10.87
2018-07-05T01:21:08.543Z,11.15
2018-07-05T01:23:48.068Z,10.70
2018-07-05T01:26:27.804Z,11.33
2018-07-05T01:29:07.482Z,13.73
2018-07-05T01:31:47.195Z,13.53
2018-07-05T01:34:26.939Z,11.00
2018-07-05T01:37:06.736Z,11.55
2018-07-05T01:39:46.538Z,10.00
2018-07-05T01:42:26.259Z,11.40
2018-07-05T01:45:06.003Z,10.85
2018-07-05T01:47:45.775Z,14.10
2018-07-05T01:50:25.389Z,10.03
2018-07-05T01:53:04.988Z,10.10
2018-07-05T01:55:44.634Z,14.10
2018-07-05T01:58:24.314Z,11.70
2018-07-05T02:01:03.884Z,9.67
2018-07-05T02:03:43.503Z,9.70
2018-07-05T02:06:23.930Z,9.65
2018-07-05T02:09:03.529Z,10.57
2018-07-05T02:11:43.078Z,11.10
2018-07-05T02:14:22.808Z,14.30
2018-07-05T02:17:02.478Z,11.70
2018-07-05T02:19:42.291Z,11.63
2018-07-05T02:22:22.054Z,12.13
2018-07-05T02:25:01.902Z,13.88
2018-07-05T02:27:41.691Z,13.25
2018-07-05T02:30:21.374Z,16.20
2018-07-05T02:33:01.234Z,12.50
2018-07-05T02:35:41.060Z,13.60
2018-07-05T02:38:22.560Z,14.33
2018-07-05T02:41:03.391Z,16.35
2018-07-05T02:43:42.961Z,14.50
2018-07-05T02:46:22.884Z,16.17
2018-07-05T02:48:56.653Z,15.67
2018-07-05T02:51:36.384Z,16.70
2018-07-05T02:54:16.269Z,16.43
2018-07-05T02:56:56.326Z,16.27
2018-07-05T02:59:36.025Z,20.02
2018-07-05T03:02:15.723Z,16.00
2018-07-05T03:04:55.564Z,16.85
2018-07-05T03:07:35.139Z,20.33
2018-07-05T03:10:14.796Z,16.00
2018-07-05T03:12:54.321Z,16.82
2018-07-05T03:15:34.248Z,16.30
2018-07-05T03:18:14.185Z,15.70
2018-07-05T03:20:54.032Z,15.57
2018-07-05T03:23:33.744Z,16.53
2018-07-05T03:26:13.632Z,16.65
2018-07-05T03:28:53.253Z,16.53
2018-07-05T03:31:32.911Z,18.17
2018-07-05T03:34:12.576Z,19.63
2018-07-05T03:36:52.299Z,16.53
2018-07-05T03:39:32.018Z,17.37
2018-07-05T03:42:11.631Z,23.18
2018-07-05T03:44:51.252Z,16.32
2018-07-05T03:47:30.943Z,16.97
2018-07-05T03:50:10.640Z,17.07
2018-07-05T03:52:50.297Z,15.17
2018-07-05T03:55:29.841Z,14.13
2018-07-05T03:58:09.595Z,15.37
2018-07-05T04:00:49.405Z,13.80
2018-07-05T04:03:29.088Z,14.10
2018-07-05T04:06:08.866Z,17.53
2018-07-05T04:08:48.666Z,14.10
2018-07-05T04:11:28.363Z,14.70
2018-07-05T04:14:08.011Z,13.90
2018-07-05T04:16:47.856Z,14.23
2018-07-05T04:19:27.747Z,14.30
2018-07-05T04:22:07.549Z,14.30
2018-07-05T04:24:47.191Z,15.50
2018-07-05T04:27:26.915Z,16.37
2018-07-05T04:30:06.600Z,16.10
2018-07-05T04:32:46.447Z,18.63
2018-07-05T04:35:26.197Z,17.13
2018-07-05T04:38:06.008Z,17.00
2018-07-05T04:40:45.627Z,14.20
2018-07-05T04:43:25.552Z,15.80
2018-07-05T04:46:05.257Z,16.73
2018-07-05T04:48:44.942Z,16.85
2018-07-05T04:51:24.603Z,18.30
2018-07-05T04:54:04.232Z,14.40
2018-07-05T04:56:43.877Z,15.23
2018-07-05T04:59:23.443Z,15.23
2018-07-05T05:02:03.093Z,14.83
2018-07-05T05:04:42.769Z,15.43
2018-07-05T05:07:22.394Z,17.03
2018-07-05T05:10:02.173Z,14.23
2018-07-05T05:12:41.793Z,14.83
2018-07-05T05:15:21.318Z,15.35
2018-07-05T05:18:01.275Z,15.27
2018-07-05T05:20:41.044Z,14.65
2018-07-05T05:23:20.713Z,13.80
2018-07-05T05:26:00.525Z,14.73
2018-07-05T05:28:40.351Z,17.00
2018-07-05T05:31:20.179Z,16.20
2018-07-05T05:34:00.330Z,17.23
2018-07-05T05:36:39.939Z,15.73
2018-07-05T05:39:20.361Z,18.00
2018-07-05T05:42:00.232Z,16.17
2018-07-05T05:44:39.966Z,17.05
2018-07-05T05:47:19.590Z,18.57
2018-07-05T05:50:00.026Z,18.00
2018-07-05T05:52:41.439Z,16.73
2018-07-05T05:55:21.042Z,15.60
2018-07-05T05:58:00.589Z,15.90
2018-07-05T06:00:43.097Z,17.53
2018-07-05T06:03:22.784Z,16.27
2018-07-05T06:06:03.687Z,16.10
2018-07-05T06:08:43.615Z,14.80
2018-07-05T06:11:23.255Z,15.90
2018-07-05T06:14:03.334Z,14.30
2018-07-05T06:16:43.190Z,13.63
2018-07-05T06:19:22.894Z,13.35
2018-07-05T06:22:02.775Z,13.90
2018-07-05T06:24:42.414Z,12.88
2018-07-05T06:27:22.065Z,15.57
2018-07-05T06:30:07.418Z,14.50
2018-07-05T06:32:47.098Z,19.33
2018-07-05T06:35:26.948Z,13.80
2018-07-05T06:38:10.468Z,16.40
2018-07-05T06:40:50.493Z,13.08
2018-07-05T06:43:30.249Z,13.80
2018-07-05T06:46:11.211Z,13.60
2018-07-05T06:48:51.633Z,15.53
2018-07-05T06:51:34.451Z,11.83
2018-07-05T06:54:14.826Z,13.63
2018-07-05T06:56:54.634Z,11.13
2018-07-05T06:59:34.305Z,11.90
2018-07-05T07:02:14.075Z,12.20
2018-07-05T07:04:53.691Z,11.43
2018-07-05T07:07:33.649Z,11.90
2018-07-05T07:10:13.540Z,14.60
2018-07-05T07:12:48.892Z,11.68
2018-07-05T07:15:29.240Z,13.40
2018-07-05T07:18:08.967Z,13.70
2018-07-05T07:20:48.705Z,11.90
2018-07-05T07:23:28.388Z,15.23
2018-07-05T07:26:07.943Z,12.05
2018-07-05T07:28:47.870Z,15.85
2018-07-05T07:31:27.727Z,11.50
2018-07-05T07:34:08.639Z,11.47
2018-07-05T07:36:48.432Z,10.37
2018-07-05T07:39:28.000Z,9.33
2018-07-05T07:41:55.376Z,8.70
2018-07-05T07:44:22.867Z,10.15
2018-07-05T07:46:50.221Z,8.70
2018-07-05T07:49:17.630Z,10.88
2018-07-05T07:51:44.978Z,9.07
2018-07-05T07:54:12.362Z,11.00
2018-07-05T07:56:40.403Z,16.40
2018-07-05T07:59:07.760Z,8.27
2018-07-05T08:01:35.254Z,7.97
2018-07-05T08:04:02.609Z,11.27
2018-07-05T08:06:29.966Z,17.33
2018-07-05T08:08:57.292Z,14.18
2018-07-05T08:11:24.815Z,6.63
2018-07-05T08:13:52.178Z,7.03
2018-07-05T08:16:19.525Z,6.00
2018-07-05T08:18:46.852Z,12.17
2018-07-05T08:21:14.196Z,7.30
2018-07-05T08:23:41.785Z,8.93
2018-07-05T08:26:09.169Z,11.10
2018-07-05T08:28:38.757Z,7.00
2018-07-05T08:31:06.186Z,7.20
2018-07-05T08:33:33.540Z,6.33
2018-07-05T08:36:01.152Z,7.43
2018-07-05T08:38:28.720Z,8.20
2018-07-05T08:40:56.085Z,8.75
2018-07-05T08:43:23.905Z,7.27
2018-07-05T08:45:51.268Z,8.27
2018-07-05T08:48:18.825Z,6.28
2018-07-05T08:50:46.187Z,7.75
2018-07-05T08:53:15.362Z,6.50
2018-07-05T08:55:42.741Z,6.10
2018-07-05T08:58:10.079Z,6.07
2018-07-05T09:00:37.617Z,8.73
2018-07-05T09:03:05.227Z,5.65
2018-07-05T09:05:32.619Z,7.17
2018-07-05T09:07:59.979Z,5.87
2018-07-05T09:10:27.364Z,5.60
2018-07-05T09:12:54.676Z,6.10
2018-07-05T09:15:22.048Z,11.07
2018-07-05T09:17:49.608Z,5.40
2018-07-05T09:20:16.758Z,5.90
2018-07-05T09:22:44.139Z,6.90
2018-07-05T09:25:11.477Z,5.47
2018-07-05T09:27:38.820Z,7.30
2018-07-05T09:30:06.160Z,6.07
2018-07-05T09:32:33.522Z,6.23
2018-07-05T09:35:00.882Z,6.57
2018-07-05T09:37:28.363Z,5.60
2018-07-05T09:39:59.765Z,6.10
2018-07-05T09:42:27.225Z,7.17
2018-07-05T09:44:54.590Z,5.80
2018-07-05T09:47:22.138Z,5.83
2018-07-05T09:49:49.546Z,4.70
2018-07-05T09:52:16.930Z,6.50
2018-07-05T09:54:44.299Z,4.83
2018-07-05T09:57:11.850Z,5.60
2018-07-05T09:59:39.273Z,6.60
2018-07-05T10:02:06.831Z,5.23
2018-07-05T10:04:34.194Z,10.50
2018-07-05T10:07:01.600Z,6.17
2018-07-05T10:09:29.097Z,8.93
2018-07-05T10:11:56.498Z,4.20
2018-07-05T10:14:23.986Z,6.55
2018-07-05T10:16:51.380Z,5.77
2018-07-05T10:19:19.317Z,5.87
2018-07-05T10:21:46.658Z,6.67
2018-07-05T10:24:13.968Z,4.83
2018-07-05T10:26:41.354Z,5.03
2018-07-05T10:29:20.963Z,4.83
2018-07-05T10:32:00.840Z,5.60
2018-07-05T10:34:28.177Z,5.62
2018-07-05T10:36:55.554Z,5.72
2018-07-05T10:39:22.970Z,7.60
2018-07-05T10:42:02.600Z,5.73
2018-07-05T10:44:42.289Z,4.60
2018-07-05T10:47:21.952Z,5.00
2018-07-05T10:50:01.703Z,4.20
2018-07-05T10:52:41.310Z,4.90
2018-07-05T10:55:21.349Z,4.50
2018-07-05T10:58:00.961Z,4.50
2018-07-05T11:00:41.102Z,6.60
2018-07-05T11:03:20.955Z,6.08
2018-07-05T11:06:00.625Z,5.27
2018-07-05T11:08:40.433Z,9.20
2018-07-05T11:11:20.312Z,8.08
2018-07-05T11:13:59.950Z,4.80
2018-07-05T11:16:40.112Z,7.80
2018-07-05T11:19:19.984Z,6.03
2018-07-05T11:21:59.746Z,6.30
2018-07-05T11:24:39.826Z,6.53
2018-07-05T11:27:19.963Z,5.23
2018-07-05T11:30:00.036Z,4.90
2018-07-05T11:32:39.829Z,5.20
2018-07-05T11:35:19.748Z,4.60
2018-07-05T11:37:59.528Z,6.47
2018-07-05T11:40:39.184Z,5.92
2018-07-05T11:43:19.110Z,5.40
2018-07-05T11:45:58.901Z,4.10
2018-07-05T11:48:38.567Z,4.57
2018-07-05T11:51:19.117Z,4.80
2018-07-05T11:53:58.882Z,5.57
2018-07-05T11:56:38.566Z,4.25
2018-07-05T11:59:18.073Z,4.50
2018-07-05T12:01:58.128Z,6.40
2018-07-05T12:04:37.885Z,4.50
2018-07-05T12:07:17.684Z,4.50
2018-07-05T12:09:57.408Z,5.13
2018-07-05T12:12:37.151Z,5.17
2018-07-05T12:15:16.813Z,4.10
2018-07-05T12:17:56.597Z,5.27
2018-07-05T12:20:36.679Z,4.35
2018-07-05T12:23:21.183Z,4.53
2018-07-05T12:26:00.994Z,4.90
2018-07-05T12:28:44.837Z,4.93
2018-07-05T12:31:19.152Z,4.62
2018-07-05T12:33:59.956Z,3.85
2018-07-05T12:36:43.486Z,8.53
2018-07-05T12:39:23.238Z,6.40
2018-07-05T12:42:04.008Z,4.58
2018-07-05T12:44:43.549Z,5.40
2018-07-05T12:47:24.374Z,5.23
2018-07-05T12:50:03.991Z,4.80
2018-07-05T12:52:43.720Z,4.37
2018-07-05T12:55:23.360Z,3.03
2018-07-05T12:58:03.116Z,2.87
2018-07-05T13:00:42.900Z,3.73
2018-07-05T13:03:22.556Z,3.83
2018-07-05T13:06:02.208Z,4.53
2018-07-05T13:08:41.784Z,5.30
2018-07-05T13:11:15.573Z,3.73
2018-07-05T13:13:55.267Z,3.90
2018-07-05T13:16:35.848Z,3.17
2018-07-05T13:19:15.774Z,5.03
2018-07-05T13:21:57.840Z,6.10
2018-07-05T13:24:37.469Z,3.83
2018-07-05T13:27:17.165Z,3.90
2018-07-05T13:29:56.966Z,3.67
2018-07-05T13:32:36.706Z,4.03
2018-07-05T13:35:16.504Z,4.53
2018-07-05T13:37:56.320Z,5.00
2018-07-05T13:40:36.229Z,4.20
2018-07-05T13:43:15.990Z,3.73
2018-07-05T13:45:55.916Z,4.57
2018-07-05T13:48:35.810Z,3.70
2018-07-05T13:51:15.721Z,3.87
2018-07-05T13:53:56.586Z,3.63
2018-07-05T13:56:36.499Z,5.50
2018-07-05T13:59:16.540Z,3.65
2018-07-05T14:01:56.395Z,8.23
2018-07-05T14:04:36.299Z,3.55
2018-07-05T14:07:16.015Z,8.70
2018-07-05T14:09:55.449Z,6.10
2018-07-05T14:12:35.037Z,5.10
2018-07-05T14:15:14.719Z,5.17
2018-07-05T14:17:54.388Z,4.13
2018-07-05T14:20:34.227Z,6.57
2018-07-05T14:23:13.972Z,5.00
2018-07-05T14:25:54.271Z,6.50
2018-07-05T14:28:34.012Z,7.75
2018-07-05T14:31:13.857Z,6.37
2018-07-05T14:33:53.684Z,5.65
2018-07-05T14:36:33.372Z,7.20
2018-07-05T14:39:13.075Z,6.07
2018-07-05T14:41:52.975Z,4.40
2018-07-05T14:44:32.683Z,5.65
2018-07-05T14:47:12.417Z,5.57
2018-07-05T14:49:52.051Z,4.47
2018-07-05T14:52:31.741Z,3.90
2018-07-05T14:55:11.375Z,3.60
2018-07-05T14:57:50.993Z,3.53
2018-07-05T15:00:30.674Z,3.47
2018-07-05T15:03:04.648Z,3.40
2018-07-05T15:05:44.266Z,3.30
2018-07-05T15:08:24.116Z,2.77
2018-07-05T15:11:03.921Z,3.50
2018-07-05T15:13:43.575Z,3.47
2018-07-05T15:16:23.191Z,3.27
2018-07-05T15:19:02.806Z,4.00
2018-07-05T15:21:42.503Z,2.92
2018-07-05T15:24:22.514Z,3.15
2018-07-05T15:27:01.989Z,3.57
2018-07-05T15:29:41.549Z,3.47
2018-07-05T15:32:21.223Z,3.60
2018-07-05T15:35:00.893Z,6.13
2018-07-05T15:37:40.463Z,3.70
2018-07-05T15:40:20.051Z,4.40
2018-07-05T15:42:59.506Z,10.38
2018-07-05T15:45:39.907Z,4.55
2018-07-05T15:48:19.964Z,4.60
2018-07-05T15:50:59.946Z,3.60
2018-07-05T15:53:39.805Z,4.27
2018-07-05T15:56:19.549Z,4.47
2018-07-05T15:58:59.273Z,4.67
2018-07-05T16:01:39.109Z,4.77
2018-07-05T16:04:18.892Z,4.28
2018-07-05T16:06:58.926Z,5.17
2018-07-05T16:09:38.650Z,4.37
2018-07-05T16:12:18.274Z,4.43
2018-07-05T16:14:58.044Z,5.03
2018-07-05T16:17:37.748Z,5.15
2018-07-05T16:20:17.437Z,4.33
2018-07-05T16:22:57.232Z,4.57
2018-07-05T16:25:37.032Z,5.50
2018-07-05T16:28:16.791Z,6.33
2018-07-05T16:30:56.700Z,5.55
2018-07-05T16:33:36.347Z,6.13
2018-07-05T16:36:16.035Z,10.10
2018-07-05T16:38:55.834Z,18.40
2018-07-05T16:41:35.595Z,8.70
2018-07-05T16:44:17.469Z,9.97
2018-07-05T16:46:57.110Z,8.53
2018-07-05T16:49:36.680Z,8.83
2018-07-05T16:52:16.514Z,8.53
2018-07-05T16:54:56.449Z,8.87
2018-07-05T16:57:39.805Z,7.97
2018-07-05T17:00:19.466Z,8.95
2018-07-05T17:02:59.210Z,8.75
2018-07-05T17:05:39.012Z,8.05
2018-07-05T17:08:18.899Z,9.25
2018-07-05T17:10:58.599Z,8.55
2018-07-05T17:13:38.189Z,9.10
2018-07-05T17:16:17.902Z,8.57
2018-07-05T17:18:57.854Z,7.90
2018-07-05T17:21:37.630Z,7.13
2018-07-05T17:24:17.447Z,7.60
2018-07-05T17:26:57.167Z,6.53
2018-07-05T17:29:37.851Z,9.03
2018-07-05T17:32:11.526Z,6.90
2018-07-05T17:34:51.050Z,6.83
2018-07-05T17:37:30.919Z,6.87
2018-07-05T17:40:10.536Z,8.53
2018-07-05T17:42:50.246Z,7.77
2018-07-05T17:45:29.935Z,6.97
2018-07-05T17:48:09.738Z,8.85
2018-07-05T17:50:49.663Z,7.00
2018-07-05T17:53:29.248Z,7.45
2018-07-05T17:56:09.870Z,7.63
2018-07-05T17:58:49.620Z,7.60
2018-07-05T18:01:29.370Z,8.50
2018-07-05T18:04:09.176Z,8.53
2018-07-05T18:06:48.776Z,8.73
2018-07-05T18:09:28.300Z,8.00
2018-07-05T18:12:08.024Z,9.03
2018-07-05T18:14:47.838Z,10.10
2018-07-05T18:17:27.560Z,8.57
2018-07-05T18:20:09.932Z,9.40
2018-07-05T18:22:49.582Z,8.77
2018-07-05T18:25:29.388Z,10.03
2018-07-05T18:28:09.230Z,9.95
2018-07-05T18:30:48.776Z,9.93
2018-07-05T18:33:28.511Z,10.40
2018-07-05T18:36:08.674Z,10.47
2018-07-05T18:38:58.543Z,10.90
2018-07-05T18:41:39.347Z,11.53
2018-07-05T18:44:26.018Z,108.95
2018-07-05T18:47:06.197Z,47.73
2018-07-05T18:49:46.206Z,18.70
2018-07-05T18:52:28.785Z,12.80
2018-07-05T18:55:08.664Z,10.67
2018-07-05T18:57:48.418Z,11.12
2018-07-05T19:00:28.124Z,10.60
2018-07-05T19:03:09.730Z,9.67
2018-07-05T19:05:49.471Z,10.63
2018-07-05T19:08:29.093Z,11.70
2018-07-05T19:11:08.814Z,11.37
2018-07-05T19:13:48.562Z,10.70
2018-07-05T19:16:28.422Z,11.30
2018-07-05T19:19:08.052Z,16.80
2018-07-05T19:21:47.800Z,11.37
2018-07-05T19:24:27.467Z,10.73
2018-07-05T19:27:07.203Z,9.93
2018-07-05T19:29:46.940Z,11.17
2018-07-05T19:32:26.839Z,10.43
2018-07-05T19:35:06.508Z,10.83
2018-07-05T19:37:46.240Z,10.83
2018-07-05T19:40:26.207Z,10.23
2018-07-05T19:43:05.809Z,11.30
2018-07-05T19:45:45.622Z,11.50
2018-07-05T19:48:25.285Z,12.17
2018-07-05T19:50:58.958Z,11.85
2018-07-05T19:53:38.998Z,11.90
2018-07-05T19:56:18.767Z,11.78
2018-07-05T19:58:58.451Z,11.38
2018-07-05T20:01:38.512Z,11.40
2018-07-05T20:04:18.390Z,11.12
2018-07-05T20:06:58.122Z,12.20
2018-07-05T20:09:37.749Z,12.07
2018-07-05T20:12:17.528Z,13.50
2018-07-05T20:14:57.276Z,13.73
2018-07-05T20:17:32.076Z,12.43
2018-07-05T20:20:11.926Z,12.47
2018-07-05T20:22:45.852Z,11.67
2018-07-05T20:25:19.750Z,12.00
2018-07-05T20:27:53.554Z,12.80
2018-07-05T20:30:27.532Z,13.13
2018-07-05T20:33:01.178Z,13.73
2018-07-05T20:35:35.063Z,12.90
2018-07-05T20:38:08.797Z,12.63
2018-07-05T20:40:42.508Z,13.23
2018-07-05T20:43:16.777Z,13.33
2018-07-05T20:45:50.527Z,13.40
2018-07-05T20:48:24.247Z,13.70
2018-07-05T20:50:58.977Z,12.70
2018-07-05T20:53:32.806Z,12.63
2018-07-05T20:56:06.542Z,13.23
2018-07-05T20:58:40.397Z,13.60
2018-07-05T21:01:13.960Z,13.27
2018-07-05T21:03:48.828Z,13.20
2018-07-05T21:06:23.157Z,13.87
2018-07-05T21:08:56.876Z,13.13
2018-07-05T21:11:30.548Z,13.03
2018-07-05T21:14:04.320Z,14.20
2018-07-05T21:16:37.989Z,13.27
2018-07-05T21:19:11.682Z,16.60
2018-07-05T21:21:45.463Z,15.90
2018-07-05T21:24:19.298Z,15.03
2018-07-05T21:26:52.916Z,14.07
2018-07-05T21:29:43.272Z,13.13
2018-07-05T21:32:17.167Z,11.93
2018-07-05T21:34:50.825Z,12.80
2018-07-05T21:37:24.553Z,12.33
2018-07-05T21:39:59.066Z,11.90
2018-07-05T21:42:32.851Z,12.50
2018-07-05T21:45:06.644Z,11.57
2018-07-05T21:47:40.226Z,12.20
2018-07-05T21:50:13.999Z,12.10
2018-07-05T21:52:47.795Z,10.87
2018-07-05T21:55:21.680Z,11.03
2018-07-05T21:57:55.487Z,11.33
2018-07-05T22:00:29.330Z,12.93
2018-07-05T22:03:02.996Z,12.20
2018-07-05T22:05:36.890Z,10.87
2018-07-05T22:08:10.587Z,10.60
2018-07-05T22:10:44.318Z,11.70
2018-07-05T22:36:31.479Z,12.37
2018-07-05T22:39:05.762Z,11.57
2018-07-05T22:41:39.515Z,11.97
2018-07-05T22:44:13.118Z,13.32
2018-07-05T22:46:46.720Z,13.47
2018-07-05T22:49:20.448Z,13.83
2018-07-05T22:51:54.220Z,13.53
2018-07-05T22:54:27.926Z,14.10
2018-07-05T22:57:01.550Z,13.10
2018-07-05T22:59:35.119Z,13.80
2018-07-05T23:02:08.895Z,13.97
2018-07-05T23:04:42.556Z,12.20
2018-07-05T23:07:16.427Z,13.37
2018-07-05T23:09:49.988Z,13.45
2018-07-05T23:12:24.539Z,12.20
2018-07-05T23:14:58.875Z,12.53
2018-07-05T23:17:32.408Z,12.47
2018-07-05T23:20:05.912Z,13.87
2018-07-05T23:22:39.556Z,14.00
2018-07-05T23:25:13.135Z,12.10
2018-07-05T23:27:47.175Z,13.87
2018-07-05T23:30:20.795Z,13.93
2018-07-05T23:32:54.557Z,15.83
2018-07-05T23:35:28.181Z,14.33
2018-07-05T23:38:01.907Z,14.90
2018-07-05T23:40:35.548Z,14.30
2018-07-05T23:43:09.245Z,15.80
2018-07-05T23:45:42.882Z,15.53
2018-07-05T23:48:16.502Z,15.50
2018-07-05T23:50:50.187Z,16.90
2018-07-05T23:53:23.975Z,13.77
2018-07-05T23:55:57.700Z,15.30
2018-07-05T23:58:31.411Z,15.20
